Jock — WDF2423 — position and weather

sailwx.info

Track history (hours):
 
Tides and Currents Weather Stations Pressure Air Temp Water Temp Dewpoint Dewpoint Depression Visibility Wind Speed Wind Dir Waves Ship Positions

Jock

Owner: Enterprise Marine Services, LLC, San Antonio, TX. More information available from US FCC via Universal Licensing System and Coast Guard Vessel Documentation Center.

Last reported at 2015-Jul-29 11:15 UTC. Time now 2015-Aug-02 00:14 UTC.
Position N 29°57' W 093°52'.

Length 28 m.

Type: Other ship. MMSI: 367003460.

Date/timePositionNaut miles runAvg speedWind from/ knotsBaromVisibWave heightAir tempDewpointWater temp
2015-Jul-29 11:15N 29°57' W 093°52'  
2015-Jul-24 18:33N 29°31' W 094°53'7 6.8
2015-Jul-24 17:33N 29°37' W 094°57'7 6.8
2015-Jul-24 16:33N 29°43' W 095°01'5 5.1
2015-Jul-24 15:33N 29°44' W 095°07'4 0.1
2015-Jul-23 14:07N 29°45' W 095°11'3 5.0
2015-Jul-23 13:32N 29°44' W 095°08'5 3.3
2015-Jul-23 12:11N 29°47' W 095°04'1 0.8
2015-Jul-23 11:28N 29°47' W 095°05'0 0.0
2015-Jul-22 00:16N 29°47' W 095°05'1 1.2
2015-Jul-21 23:32N 29°46' W 095°05'  
2015-Jul-19 14:30N 29°47' W 095°05'  
Track history (hours):
 
Tides and Currents Weather Stations Pressure Air Temp Water Temp Dewpoint Dewpoint Depression Visibility Wind Speed Wind Dir Waves Ship Positions

Jock

Owner: Enterprise Marine Services, LLC, San Antonio, TX. More information available from US FCC via Universal Licensing System and Coast Guard Vessel Documentation Center.

Last reported at 2015-Jul-29 11:15 UTC. Time now 2015-Aug-02 00:14 UTC.
Position N 29°57' W 093°52'.

Length 28 m.

Type: Other ship. MMSI: 367003460.

Date/timePositionNaut miles runAvg speedWind from/ knotsBaromVisibWave heightAir tempDewpointWater temp
2015-Jul-29 11:15N 29°57' W 093°52'  
2015-Jul-24 18:33N 29°31' W 094°53'7 6.8
2015-Jul-24 17:33N 29°37' W 094°57'7 6.8
2015-Jul-24 16:33N 29°43' W 095°01'5 5.1
2015-Jul-24 15:33N 29°44' W 095°07'4 0.1
2015-Jul-23 14:07N 29°45' W 095°11'3 5.0
2015-Jul-23 13:32N 29°44' W 095°08'5 3.3
2015-Jul-23 12:11N 29°47' W 095°04'1 0.8
2015-Jul-23 11:28N 29°47' W 095°05'0 0.0
2015-Jul-22 00:16N 29°47' W 095°05'1 1.2
2015-Jul-21 23:32N 29°46' W 095°05'  
2015-Jul-19 14:30N 29°47' W 095°05'  

Dump ship's entire track history